TimeMST,TemperatureF,Dew PointF,Humidity,Sea Level PressureIn,VisibilityMPH,Wind Direction,Wind SpeedMPH,Gust SpeedMPH,PrecipitationIn,Events,Conditions,WindDirDegrees,DateUTC
12:51 AM,-4.0,-8.0,83,30.20,-9999.0,Calm,Calm,-,N/A,,Unknown,0,2014-02-05 07:51:00
1:51 AM,-5.1,-9.9,80,30.17,-9999.0,Calm,Calm,-,N/A,,Unknown,0,2014-02-05 08:51:00
2:51 AM,-2.9,-8.0,79,30.15,-9999.0,South,5.8,-,N/A,,Unknown,180,2014-02-05 09:51:00
3:51 AM,-4.0,-8.0,83,30.14,-9999.0,SSE,5.8,-,N/A,,Unknown,150,2014-02-05 10:51:00
4:51 AM,-8.0,-11.0,86,30.18,-9999.0,Calm,Calm,-,N/A,,Unknown,0,2014-02-05 11:51:00
5:51 AM,-9.9,-15.0,78,30.19,-9999.0,SW,3.5,-,N/A,,Unknown,230,2014-02-05 12:51:00
6:51 AM,-11.0,-15.0,83,30.22,-9999.0,Calm,Calm,-,N/A,,Unknown,0,2014-02-05 13:51:00
7:51 AM,-11.9,-17.0,78,30.24,-9999.0,SSW,4.6,-,N/A,,Unknown,200,2014-02-05 14:51:00
8:51 AM,-9.0,-11.9,87,30.26,-9999.0,Calm,Calm,-,N/A,,Unknown,0,2014-02-05 15:51:00
9:51 AM,-2.9,-7.1,82,30.25,-9999.0,Calm,Calm,-,N/A,,Unknown,0,2014-02-05 16:51:00
10:51 AM,-0.9,-7.1,75,30.26,-9999.0,Calm,Calm,-,N/A,,Unknown,0,2014-02-05 17:51:00
11:51 AM,1.0,-6.0,72,30.25,-9999.0,Calm,Calm,-,N/A,,Unknown,0,2014-02-05 18:51:00
12:51 PM,3.9,-4.0,70,30.18,-9999.0,North,4.6,-,N/A,,Unknown,350,2014-02-05 19:51:00
1:51 PM,9.0,-0.9,64,30.14,-9999.0,North,4.6,-,N/A,,Unknown,350,2014-02-05 20:51:00
2:51 PM,10.0,-0.0,64,30.10,-9999.0,NNW,3.5,-,N/A,,Unknown,340,2014-02-05 21:51:00
3:51 PM,10.0,-0.0,64,30.11,-9999.0,NNW,3.5,-,N/A,,Unknown,330,2014-02-05 22:51:00
4:51 PM,9.0,1.9,73,30.13,-9999.0,WNW,4.6,-,N/A,,Unknown,290,2014-02-05 23:51:00
5:51 PM,8.1,3.0,80,30.15,-9999.0,Calm,Calm,-,N/A,,Unknown,0,2014-02-06 00:51:00
6:51 PM,3.9,-0.0,84,30.18,-9999.0,Calm,Calm,-,N/A,,Unknown,0,2014-02-06 01:51:00
7:51 PM,3.0,-0.0,87,30.19,-9999.0,Calm,Calm,-,N/A,,Unknown,0,2014-02-06 02:51:00
8:51 PM,3.0,-0.9,84,30.19,-9999.0,North,4.6,-,N/A,,Unknown,350,2014-02-06 03:51:00
9:51 PM,1.9,-2.0,83,30.15,-9999.0,North,3.5,-,N/A,,Unknown,360,2014-02-06 04:51:00
10:51 PM,1.0,-2.9,83,30.14,-9999.0,North,3.5,-,0.01,,Unknown,360,2014-02-06 05:51:00
11:51 PM,-8.0,-11.9,83,30.18,-9999.0,South,3.5,-,0.01,,Unknown,180,2014-02-06 06:51:00